Time;durP1;ratioP1;P1;durP2;ratioP2;P2;SDS_P1;SDS_P2;PMS_P1;PMS_P2;Temp;Humidity;BMP_temperature;BMP_pressure;BME280_temperature;BME280_humidity;BME280_pressure;Samples;Min_cycle;Max_cycle;Signal;HPM_P1;HPM_P2
2024/03/15 00:01:12;;;;;;;12.60;7.90;;;;;;;6.60;79.16;99581.44;81947;1297;3011415;-62
2024/03/15 00:03:39;;;;;;;19.70;8.60;;;;;;;6.50;79.89;99582.02;81921;1298;3011225;-59
2024/03/15 00:06:06;;;;;;;15.00;7.80;;;;;;;6.33;80.27;99580.44;80674;1295;3026276;-61
2024/03/15 00:08:33;;;;;;;14.90;9.00;;;;;;;6.25;80.83;99580.09;81936;1297;3012652;-62
2024/03/15 00:10:59;;;;;;;17.00;9.20;;;;;;;6.13;81.07;99582.69;81923;1296;3011472;-61
2024/03/15 00:13:27;;;;;;;12.50;8.30;;;;;;;6.04;81.54;99579.52;80649;1295;3027814;-59
2024/03/15 00:15:54;;;;;;;19.40;8.30;;;;;;;5.99;81.61;99582.17;81932;1297;3018432;-60
2024/03/15 00:18:20;;;;;;;16.50;9.00;;;;;;;5.93;81.82;99584.13;81909;1297;3011519;-58
2024/03/15 00:20:49;;;;;;;18.10;9.40;;;;;;;5.85;81.98;99585.48;80673;1299;3025742;-60
2024/03/15 00:23:17;;;;;;;18.40;9.40;;;;;;;5.76;82.58;99586.04;81987;1301;3011404;-59
2024/03/15 00:25:43;;;;;;;15.90;7.20;;;;;;;5.76;83.01;99586.38;81969;1295;3011342;-60
2024/03/15 00:28:11;;;;;;;16.60;8.70;;;;;;;6.20;81.88;99589.70;80648;1295;3048693;-60
2024/03/15 00:30:41;;;;;;;19.70;8.40;;;;;;;6.77;79.35;99583.70;81948;1300;3012890;-58
2024/03/15 00:33:12;;;;;;;22.50;9.20;;;;;;;6.93;78.67;99585.23;81402;1297;3011620;-60
2024/03/15 00:35:39;;;;;;;19.00;9.70;;;;;;;6.88;78.44;99587.74;81935;1297;3011267;-59
2024/03/15 00:38:08;;;;;;;16.00;7.90;;;;;;;6.64;78.50;99591.17;81418;1300;3011346;-60
2024/03/15 00:40:34;;;;;;;19.90;9.80;;;;;;;6.44;79.15;99589.58;81943;1298;3013282;-61
2024/03/15 00:43:03;;;;;;;18.00;9.70;;;;;;;6.30;79.41;99587.21;81919;1296;3011246;-60
2024/03/15 00:45:30;;;;;;;22.20;10.60;;;;;;;6.10;80.18;99582.42;80691;1296;3047970;-60
2024/03/15 00:47:57;;;;;;;19.30;10.20;;;;;;;5.97;80.85;99582.25;81961;1300;3013315;-57
2024/03/15 00:50:24;;;;;;;21.90;10.00;;;;;;;5.84;81.26;99588.14;81912;1297;3011797;-61
2024/03/15 00:52:57;;;;;;;19.40;10.80;;;;;;;5.67;81.82;99584.63;80644;1295;3026303;-60
2024/03/15 00:55:27;;;;;;;24.60;9.90;;;;;;;5.58;82.44;99590.52;81907;1296;3011423;-60
2024/03/15 00:57:55;;;;;;;22.60;9.90;;;;;;;5.48;83.22;99585.16;80664;1295;3049225;-60
2024/03/15 01:00:21;;;;;;;22.20;10.60;;;;;;;5.45;83.33;99583.39;81901;1297;3012813;-59
2024/03/15 01:02:48;;;;;;;14.00;7.90;;;;;;;5.41;83.70;99589.60;81907;1296;3011197;-60
2024/03/15 01:05:16;;;;;;;16.10;8.40;;;;;;;5.88;82.67;99584.16;80674;1297;3025439;-61
2024/03/15 01:07:43;;;;;;;15.80;8.80;;;;;;;6.39;80.35;99583.35;81957;1300;3012846;-59
2024/03/15 01:10:09;;;;;;;20.10;8.80;;;;;;;6.53;79.60;99581.04;81915;1295;3011258;-58
2024/03/15 01:12:37;;;;;;;19.20;8.90;;;;;;;6.46;79.34;99575.92;80674;1296;3025621;-60
2024/03/15 01:15:04;;;;;;;16.70;9.20;;;;;;;6.34;79.58;99579.94;81925;1300;3017942;-58
2024/03/15 01:17:31;;;;;;;21.20;9.60;;;;;;;6.19;79.95;99571.14;81918;1296;3011191;-58
2024/03/15 01:19:59;;;;;;;23.00;10.80;;;;;;;6.03;80.65;99570.73;80647;1297;3026676;-59
2024/03/15 01:22:25;;;;;;;17.30;9.60;;;;;;;5.92;81.30;99573.56;81910;1296;3018104;-59
2024/03/15 01:24:52;;;;;;;24.10;10.90;;;;;;;5.76;81.79;99574.71;81914;1295;3011557;-60
2024/03/15 01:27:22;;;;;;;24.50;12.00;;;;;;;5.68;82.37;99571.91;80659;1296;3026530;-60
2024/03/15 01:29:49;;;;;;;28.00;12.00;;;;;;;5.68;82.20;99572.23;81916;1295;3011548;-58
2024/03/15 01:32:15;;;;;;;17.20;12.10;;;;;;;5.64;82.53;99571.88;81938;1295;3011252;-59
2024/03/15 01:34:43;;;;;;;26.70;13.40;;;;;;;5.61;82.86;99570.07;80667;1295;3051456;-63
2024/03/15 01:37:10;;;;;;;29.40;10.10;;;;;;;5.53;83.08;99569.34;81932;1297;3018205;-58
2024/03/15 01:39:36;;;;;;;25.60;11.60;;;;;;;5.98;82.01;99570.02;81887;1297;3011327;-61
2024/03/15 01:42:04;;;;;;;25.90;11.50;;;;;;;6.61;80.18;99573.73;80648;1297;3026024;-60
2024/03/15 01:44:46;;;;;;;26.90;12.20;;;;;;;6.68;78.73;99570.14;81946;1297;3011574;-59
2024/03/15 01:47:15;;;;;;;26.30;11.40;;;;;;;6.50;78.41;99572.29;80562;1300;3052327;-59
2024/03/15 01:49:42;;;;;;;23.50;13.00;;;;;;;6.34;79.16;99575.19;81858;1297;3011285;-61
2024/03/15 01:52:08;;;;;;;26.30;13.00;;;;;;;6.23;79.49;99568.69;81891;1296;3011152;-60
2024/03/15 01:54:36;;;;;;;27.30;12.40;;;;;;;6.20;79.93;99566.41;80652;1295;3054799;-59
2024/03/15 01:57:05;;;;;;;27.80;13.10;;;;;;;6.11;79.85;99560.69;81924;1300;3018322;-61
2024/03/15 01:59:34;;;;;;;25.70;12.40;;;;;;;5.96;80.25;99564.19;81948;1296;3011174;-60
2024/03/15 02:02:03;;;;;;;24.90;11.40;;;;;;;5.83;80.65;99564.02;80709;1297;3052614;-60
2024/03/15 02:04:33;;;;;;;21.40;13.10;;;;;;;5.74;81.26;99562.45;81926;1300;3011831;-64
2024/03/15 02:07:01;;;;;;;27.40;12.40;;;;;;;5.66;81.48;99561.57;80657;1296;3050523;-59
2024/03/15 02:09:28;;;;;;;28.40;12.30;;;;;;;5.54;81.15;99565.98;81895;1296;3012572;-59
2024/03/15 02:11:54;;;;;;;23.60;12.10;;;;;;;5.36;81.76;99567.90;81876;1297;3011223;-57
2024/03/15 02:14:22;;;;;;;27.60;11.40;;;;;;;5.17;82.88;99566.19;80659;1295;3027529;-60
2024/03/15 02:16:49;;;;;;;25.30;9.00;;;;;;;5.20;83.38;99565.17;81962;1297;3012418;-60
2024/03/15 02:19:16;;;;;;;25.60;10.90;;;;;;;5.81;82.06;99569.48;81886;1300;3011599;-60
2024/03/15 02:21:47;;;;;;;23.90;9.40;;;;;;;6.39;79.55;99567.34;80668;1295;3025274;-59
2024/03/15 02:24:14;;;;;;;20.10;10.20;;;;;;;6.53;78.49;99571.30;81940;1296;3011366;-61
2024/03/15 02:26:42;;;;;;;16.50;9.20;;;;;;;6.50;78.40;99571.27;80660;1295;3025578;-59
2024/03/15 02:29:09;;;;;;;28.10;9.70;;;;;;;6.39;78.78;99575.36;81928;1297;3018311;-60
2024/03/15 02:31:35;;;;;;;24.00;10.50;;;;;;;6.23;78.83;99578.42;81930;1295;3011434;-59
2024/03/15 02:34:04;;;;;;;24.40;9.90;;;;;;;6.07;79.18;99578.03;80689;1295;3025723;-59
2024/03/15 02:36:30;;;;;;;22.70;9.80;;;;;;;5.91;79.84;99580.05;81946;1295;3012602;-59
2024/03/15 02:38:57;;;;;;;22.50;9.50;;;;;;;5.77;80.23;99581.98;81906;1295;3011463;-60
2024/03/15 02:41:26;;;;;;;25.50;11.00;;;;;;;5.56;81.53;99586.23;80660;1296;3048657;-59
2024/03/15 02:43:53;;;;;;;22.70;9.90;;;;;;;5.54;81.86;99584.25;81936;1295;3013244;-59
2024/03/15 02:46:19;;;;;;;24.30;10.00;;;;;;;5.42;82.11;99592.50;81969;1295;3011736;-59
2024/03/15 02:48:47;;;;;;;22.30;9.80;;;;;;;5.29;83.00;99589.02;80693;1296;3052919;-60
2024/03/15 02:51:15;;;;;;;26.20;10.30;;;;;;;5.27;83.47;99587.50;81955;1295;3012710;-60
2024/03/15 02:53:43;;;;;;;19.60;8.60;;;;;;;5.23;83.44;99585.73;81948;1295;3011480;-59
2024/03/15 02:56:11;;;;;;;26.90;9.00;;;;;;;5.73;82.51;99587.87;80698;1295;3049274;-60
2024/03/15 02:58:37;;;;;;;22.00;7.30;;;;;;;6.36;80.03;99588.89;81980;1295;3018512;-59
2024/03/15 03:01:05;;;;;;;32.80;9.10;;;;;;;6.47;78.72;99590.83;81944;1295;3011450;-57
2024/03/15 03:03:33;;;;;;;21.00;8.70;;;;;;;6.38;78.72;99585.27;80711;1298;3052548;-58
2024/03/15 03:06:01;;;;;;;19.30;8.10;;;;;;;6.27;78.58;99593.91;81981;1299;3018756;-58
2024/03/15 03:08:28;;;;;;;24.30;8.90;;;;;;;6.22;78.75;99594.30;81954;1295;3011473;-59
2024/03/15 03:10:55;;;;;;;30.50;10.50;;;;;;;6.08;78.94;99591.73;80723;1295;3026424;-58
2024/03/15 03:13:22;;;;;;;30.00;9.10;;;;;;;5.92;79.33;99593.73;81944;1298;3018318;-59
2024/03/15 03:15:49;;;;;;;30.40;9.40;;;;;;;5.85;79.49;99598.38;81972;1295;3011392;-60
2024/03/15 03:18:17;;;;;;;28.20;10.20;;;;;;;5.73;79.87;99595.52;80725;1295;3026506;-61
2024/03/15 03:20:43;;;;;;;28.90;9.40;;;;;;;5.64;80.34;99600.37;81981;1295;3012759;-58
2024/03/15 03:23:11;;;;;;;29.60;10.00;;;;;;;5.54;80.73;99602.84;81970;1295;3011594;-59
2024/03/15 03:25:39;;;;;;;22.80;9.70;;;;;;;5.49;81.05;99600.95;80734;1295;3049071;-58
2024/03/15 03:28:05;;;;;;;33.20;9.00;;;;;;;5.41;81.34;99604.02;81984;1295;3013097;-59
2024/03/15 03:30:32;;;;;;;24.40;10.20;;;;;;;5.41;81.38;99601.92;81922;1298;3011422;-59
2024/03/15 03:33:00;;;;;;;15.10;7.00;;;;;;;5.37;81.63;99598.95;80717;1298;3026188;-59
2024/03/15 03:35:26;;;;;;;18.70;7.80;;;;;;;5.74;80.82;99602.23;81984;1295;3012350;-59
2024/03/15 03:37:53;;;;;;;23.00;7.70;;;;;;;6.35;78.73;99599.20;81961;1295;3011246;-58
2024/03/15 03:40:24;;;;;;;26.80;8.40;;;;;;;6.46;77.82;99598.53;80710;1295;3025950;-58
2024/03/15 03:42:51;;;;;;;28.40;8.50;;;;;;;6.41;77.47;99602.41;81964;1295;3011486;-60
2024/03/15 03:45:19;;;;;;;29.10;9.60;;;;;;;6.33;77.66;99601.02;80694;1295;3026685;-60
2024/03/15 03:47:48;;;;;;;23.20;9.40;;;;;;;6.14;77.94;99603.85;82011;1295;3012596;-58
2024/03/15 03:50:15;;;;;;;29.80;10.10;;;;;;;5.86;78.83;99609.30;81972;1296;3011169;-60
2024/03/15 03:52:43;;;;;;;27.10;9.10;;;;;;;5.64;79.87;99609.23;80699;1295;3049816;-60
2024/03/15 03:55:10;;;;;;;27.40;10.40;;;;;;;5.58;80.38;99607.02;81992;1295;3012890;-60
2024/03/15 03:57:37;;;;;;;34.50;10.40;;;;;;;5.46;80.56;99608.34;82004;1295;3011094;-58
2024/03/15 04:00:05;;;;;;;25.60;9.50;;;;;;;5.40;80.80;99605.27;80720;1299;3025740;-60
2024/03/15 04:02:44;;;;;;;25.20;9.90;;;;;;;5.24;81.45;99610.02;81452;1295;3011278;-60
2024/03/15 04:05:13;;;;;;;21.20;9.60;;;;;;;5.13;82.13;99608.49;81953;1301;3011435;-63
2024/03/15 04:07:45;;;;;;;21.40;8.80;;;;;;;5.00;82.74;99606.88;80738;1297;3051655;-57
2024/03/15 04:10:13;;;;;;;23.30;10.60;;;;;;;5.02;82.19;99606.29;81988;1295;3011365;-60
2024/03/15 04:12:42;;;;;;;18.70;7.90;;;;;;;4.97;82.76;99601.27;80680;1295;3052084;-61
2024/03/15 04:15:10;;;;;;;18.80;8.30;;;;;;;5.40;82.02;99605.63;81959;1295;3010867;-58
2024/03/15 04:17:41;;;;;;;26.20;8.10;;;;;;;5.89;80.02;99606.91;81437;1295;3011349;-59
2024/03/15 04:20:18;;;;;;;24.60;9.40;;;;;;;5.99;78.89;99608.59;81951;1295;3013166;-63
2024/03/15 04:22:45;;;;;;;20.70;9.10;;;;;;;5.99;78.93;99609.30;80688;1296;3049576;-60
2024/03/15 04:25:16;;;;;;;20.70;8.30;;;;;;;5.78;78.91;99616.88;81984;1299;3012603;-61
2024/03/15 04:27:46;;;;;;;17.10;9.00;;;;;;;5.48;79.62;99611.91;80725;1295;3068334;-62
2024/03/15 04:30:14;;;;;;;19.80;8.60;;;;;;;5.45;80.11;99612.91;81982;1295;3011290;-59
2024/03/15 04:32:46;;;;;;;24.40;8.20;;;;;;;5.34;79.89;99611.73;81453;1295;3011367;-61
2024/03/15 04:35:13;;;;;;;22.20;8.90;;;;;;;5.17;79.97;99615.46;81965;1295;3011367;-60
2024/03/15 04:37:43;;;;;;;16.00;9.80;;;;;;;5.08;80.15;99618.39;81432;1295;3011620;-59
2024/03/15 04:40:10;;;;;;;28.50;9.60;;;;;;;4.93;80.74;99619.78;81994;1298;3011457;-60
2024/03/15 04:42:37;;;;;;;20.50;9.70;;;;;;;4.91;80.63;99618.13;81947;1299;3011344;-60
2024/03/15 04:45:14;;;;;;;23.60;9.30;;;;;;;4.88;80.91;99623.97;80715;1295;3069051;-62
2024/03/15 04:47:42;;;;;;;18.70;9.00;;;;;;;4.83;80.98;99623.08;80706;1295;3052776;-61
2024/03/15 04:50:09;;;;;;;20.20;9.40;;;;;;;4.79;80.82;99626.20;81963;1295;3011244;-61
2024/03/15 04:52:36;;;;;;;28.20;9.70;;;;;;;4.74;80.66;99628.09;81962;1295;3011360;-61
2024/03/15 04:55:05;;;;;;;28.20;9.20;;;;;;;4.74;81.06;99625.32;80716;1295;3050343;-61
2024/03/15 04:57:32;;;;;;;21.60;9.20;;;;;;;4.80;80.66;99629.45;82001;1298;3011188;-60
2024/03/15 04:59:58;;;;;;;26.10;9.00;;;;;;;4.74;80.04;99636.77;81985;1297;3011244;-62
2024/03/15 05:02:28;;;;;;;24.70;9.00;;;;;;;4.70;80.21;99640.88;80723;1297;3050957;-59
2024/03/15 05:04:55;;;;;;;18.40;7.90;;;;;;;4.65;80.63;99645.41;81973;1295;3011584;-62
2024/03/15 05:07:21;;;;;;;21.00;7.40;;;;;;;4.66;80.92;99646.40;81997;1295;3011780;-60
2024/03/15 05:09:49;;;;;;;20.10;7.40;;;;;;;5.17;79.65;99642.19;80698;1295;3049501;-62
2024/03/15 05:12:16;;;;;;;24.50;8.10;;;;;;;5.83;76.51;99640.30;82007;1298;3012978;-60
2024/03/15 05:15:28;;;;;;;20.10;7.60;;;;;;;6.04;75.36;99641.10;80789;1301;3013626;-60
2024/03/15 05:17:55;;;;;;;17.40;8.40;;;;;;;6.01;75.43;99644.71;79177;1301;3013683;-60
2024/03/15 05:20:22;;;;;;;19.20;8.50;;;;;;;5.81;75.66;99640.55;79052;1306;3011764;-58
2024/03/15 05:22:49;;;;;;;14.10;8.00;;;;;;;5.65;75.74;99645.34;77805;1307;3028271;-61
2024/03/15 05:25:16;;;;;;;27.50;8.20;;;;;;;5.62;76.28;99649.43;79008;1301;3013296;-60
2024/03/15 05:27:43;;;;;;;23.00;9.60;;;;;;;5.59;75.88;99646.77;78785;1303;3011789;-60
2024/03/15 05:30:11;;;;;;;20.00;8.60;;;;;;;5.47;76.10;99649.65;78197;1299;3026531;-61
2024/03/15 05:32:39;;;;;;;19.90;9.30;;;;;;;5.34;76.36;99654.45;79823;1298;3012830;-61
2024/03/15 05:35:06;;;;;;;17.90;8.60;;;;;;;5.20;76.70;99654.64;79208;1301;3011502;-58
2024/03/15 05:37:34;;;;;;;21.50;9.10;;;;;;;5.10;77.26;99654.26;78131;1303;3051487;-60
2024/03/15 05:40:04;;;;;;;19.30;8.70;;;;;;;4.93;77.98;99656.59;79478;1303;3012976;-60
2024/03/15 05:42:32;;;;;;;18.40;8.70;;;;;;;4.93;78.15;99660.61;78404;1303;3056121;-61
2024/03/15 05:44:59;;;;;;;21.70;8.70;;;;;;;4.97;77.75;99659.58;79730;1303;3013706;-61
2024/03/15 05:47:25;;;;;;;22.60;8.90;;;;;;;4.80;78.16;99663.29;79365;1303;3011655;-61
2024/03/15 05:49:54;;;;;;;23.90;8.40;;;;;;;4.65;78.82;99660.30;78032;1303;3027091;-61
2024/03/15 05:52:21;;;;;;;26.50;9.50;;;;;;;4.57;79.57;99663.01;78982;1303;3013693;-59
2024/03/15 05:54:48;;;;;;;25.10;9.30;;;;;;;4.54;79.56;99659.98;79233;1301;3011650;-59
2024/03/15 05:57:15;;;;;;;26.80;9.40;;;;;;;4.56;79.51;99662.52;77966;1300;3055925;-61
2024/03/15 05:59:42;;;;;;;21.70;9.30;;;;;;;4.58;79.32;99662.65;80315;1300;3012856;-62
2024/03/15 06:02:09;;;;;;;27.10;9.80;;;;;;;4.46;79.50;99664.22;79888;1301;3013193;-62
2024/03/15 06:04:37;;;;;;;18.60;9.00;;;;;;;4.41;79.88;99666.48;77995;1300;3026449;-61
2024/03/15 06:07:04;;;;;;;22.50;9.10;;;;;;;4.34;80.28;99666.68;79185;1299;3013619;-61
2024/03/15 06:09:30;;;;;;;19.80;7.70;;;;;;;4.45;80.14;99667.55;79152;1300;3011542;-60
2024/03/15 06:11:59;;;;;;;20.70;8.30;;;;;;;4.92;78.82;99660.08;78020;1297;3028214;-62
2024/03/15 06:14:25;;;;;;;18.60;8.10;;;;;;;5.52;76.44;99656.95;79236;1300;3015707;-61
2024/03/15 06:16:52;;;;;;;20.90;8.00;;;;;;;5.63;75.41;99653.59;80091;1297;3011438;-61
2024/03/15 06:19:22;;;;;;;29.50;9.30;;;;;;;5.65;75.62;99657.52;78390;1299;3052880;-60
2024/03/15 06:21:49;;;;;;;20.80;8.70;;;;;;;5.43;75.64;99659.35;79399;1299;3012418;-60
2024/03/15 06:24:19;;;;;;;25.20;9.50;;;;;;;5.42;75.94;99657.31;79007;1300;3011699;-64
2024/03/15 06:26:49;;;;;;;33.80;9.30;;;;;;;5.28;76.53;99658.33;80446;1300;3012852;-61
2024/03/15 06:29:18;;;;;;;25.70;9.70;;;;;;;5.15;76.94;99663.31;78945;1299;3049256;-58
2024/03/15 06:31:45;;;;;;;29.80;10.50;;;;;;;4.97;77.60;99665.48;80023;1299;3011576;-61
2024/03/15 06:34:12;;;;;;;24.00;10.20;;;;;;;4.93;77.86;99665.45;79744;1301;3011559;-59
2024/03/15 06:36:44;;;;;;;28.50;9.90;;;;;;;4.87;78.06;99667.92;78532;1308;3051730;-59
2024/03/15 06:41:57;;;;;;;24.00;9.80;;;;;;;4.71;78.94;99662.70;78793;1300;3051182;-60
2024/03/15 06:44:35;;;;;;;31.20;11.20;;;;;;;4.71;79.24;99661.16;80177;1296;3018985;-60
2024/03/15 06:53:38;;;;;;;28.30;11.40;;;;;;;4.64;80.07;99660.50;78105;1310;3053294;-60
2024/03/15 06:56:04;;;;;;;25.30;11.30;;;;;;;4.66;80.20;99656.65;79814;1304;3018410;-60
2024/03/15 06:58:31;;;;;;;39.80;9.80;;;;;;;4.60;80.60;99657.19;80026;1308;3012695;-62
2024/03/15 07:00:59;;;;;;;26.90;10.40;;;;;;;5.05;79.93;99653.23;78611;1304;3028010;-62
2024/03/15 07:03:27;;;;;;;30.90;9.60;;;;;;;5.50;77.72;99648.69;80457;1301;3013596;-60
2024/03/15 07:05:56;;;;;;;25.80;10.70;;;;;;;5.74;76.71;99647.98;81362;1298;3011173;-61
2024/03/15 07:08:23;;;;;;;27.80;10.80;;;;;;;5.66;76.55;99644.45;78778;1301;3052046;-61
2024/03/15 07:10:50;;;;;;;36.00;12.20;;;;;;;5.54;76.91;99645.41;80164;1295;3013560;-61
2024/03/15 07:13:17;;;;;;;46.90;12.20;;;;;;;5.46;77.56;99644.67;80386;1300;3013340;-59
2024/03/15 07:15:44;;;;;;;36.00;12.60;;;;;;;5.32;77.74;99645.01;79017;1301;3026614;-63
2024/03/15 07:18:12;;;;;;;44.50;12.80;;;;;;;5.14;78.64;99645.79;80286;1296;3013373;-61
2024/03/15 07:20:41;;;;;;;35.60;13.70;;;;;;;5.08;79.09;99641.85;80522;1300;3011690;-59
2024/03/15 07:23:11;;;;;;;32.80;13.70;;;;;;;5.00;79.74;99646.11;79025;1300;3053858;-58
2024/03/15 07:25:37;;;;;;;39.10;13.60;;;;;;;5.03;79.84;99641.86;79931;1301;3013202;-61
2024/03/15 07:28:04;;;;;;;30.20;14.20;;;;;;;4.98;79.91;99640.29;80116;1301;3011485;-61
2024/03/15 07:30:34;;;;;;;33.50;14.70;;;;;;;4.96;80.33;99640.54;79150;1301;3067522;-61
2024/03/15 07:33:01;;;;;;;40.20;14.70;;;;;;;4.94;80.30;99637.99;79871;1296;3012726;-63
2024/03/15 07:35:29;;;;;;;34.00;13.80;;;;;;;4.94;80.34;99637.48;79705;1297;3011812;-61
2024/03/15 07:37:58;;;;;;;41.00;13.00;;;;;;;4.89;80.81;99636.61;78006;1300;3052600;-63
2024/03/15 07:40:25;;;;;;;27.90;10.40;;;;;;;4.91;80.83;99640.18;79976;1301;3013301;-61
2024/03/15 07:42:54;;;;;;;44.00;12.10;;;;;;;5.42;79.84;99637.86;79541;1301;3011649;-59
2024/03/15 07:45:22;;;;;;;35.00;11.00;;;;;;;5.92;77.29;99637.73;79350;1301;3068386;-59
2024/03/15 07:47:49;;;;;;;31.40;12.10;;;;;;;6.01;76.54;99636.53;79955;1295;3012961;-62
2024/03/15 07:50:16;;;;;;;45.00;13.90;;;;;;;5.93;77.01;99634.72;80341;1301;3012120;-62
2024/03/15 07:52:44;;;;;;;32.90;12.30;;;;;;;5.88;77.20;99635.08;78589;1296;3052715;-62
2024/03/15 07:55:10;;;;;;;28.70;13.20;;;;;;;5.71;77.37;99631.41;80035;1298;3013225;-61
2024/03/15 07:57:37;;;;;;;35.50;13.30;;;;;;;5.55;77.98;99632.86;79447;1301;3013120;-60
2024/03/15 08:00:09;;;;;;;42.70;14.40;;;;;;;5.53;78.45;99631.03;78515;1302;3024860;-59
2024/03/15 08:02:36;;;;;;;39.00;13.30;;;;;;;5.45;78.70;99632.54;80126;1296;3011240;-62
2024/03/15 08:05:06;;;;;;;43.00;13.90;;;;;;;5.35;79.23;99633.94;78858;1296;3027441;-61
2024/03/15 08:07:32;;;;;;;37.90;13.20;;;;;;;5.26;80.00;99633.23;79686;1301;3013415;-59
2024/03/15 08:09:59;;;;;;;42.20;12.80;;;;;;;5.17;80.65;99632.69;79274;1301;3012051;-63
2024/03/15 08:12:28;;;;;;;43.10;14.70;;;;;;;5.14;81.06;99629.31;78405;1302;3053341;-59
2024/03/15 08:14:55;;;;;;;36.80;13.60;;;;;;;5.06;81.65;99630.96;79887;1301;3012959;-60
2024/03/15 08:17:22;;;;;;;27.80;10.80;;;;;;;5.13;82.02;99630.05;79825;1295;3011777;-61
2024/03/15 08:19:50;;;;;;;27.90;11.90;;;;;;;5.60;81.01;99627.11;78099;1301;3056263;-60
2024/03/15 08:22:16;;;;;;;35.40;11.30;;;;;;;6.14;78.85;99629.77;80266;1295;3012815;-59
2024/03/15 08:24:44;;;;;;;33.80;13.00;;;;;;;6.32;77.93;99628.89;79461;1297;3011572;-60
2024/03/15 08:27:12;;;;;;;33.50;12.20;;;;;;;6.17;78.00;99628.60;77984;1302;3052075;-61
2024/03/15 08:29:39;;;;;;;24.80;11.30;;;;;;;6.10;78.05;99630.09;79452;1300;3012634;-59
2024/03/15 08:32:08;;;;;;;29.80;12.90;;;;;;;5.95;78.79;99631.86;80931;1296;3011463;-60
2024/03/15 08:34:37;;;;;;;27.40;12.80;;;;;;;5.93;79.21;99635.27;79607;1296;3056197;-61
2024/03/15 08:37:03;;;;;;;21.30;12.30;;;;;;;5.79;79.49;99635.77;80282;1300;3012586;-60
2024/03/15 08:39:30;;;;;;;29.80;13.40;;;;;;;5.68;80.02;99637.92;80257;1295;3011593;-60
2024/03/15 08:41:58;;;;;;;30.10;12.40;;;;;;;5.61;80.58;99635.08;78656;1300;3025965;-61
2024/03/15 08:44:25;;;;;;;29.40;13.30;;;;;;;5.49;81.20;99634.65;80318;1295;3014686;-61
2024/03/15 08:46:52;;;;;;;24.50;12.60;;;;;;;5.41;81.34;99632.52;79417;1301;3011919;-60
2024/03/15 08:49:20;;;;;;;35.70;12.80;;;;;;;5.46;81.37;99634.08;78889;1300;3057290;-59
2024/03/15 08:51:48;;;;;;;34.60;12.50;;;;;;;5.38;81.46;99632.45;80091;1296;3013408;-60
2024/03/15 08:54:15;;;;;;;16.50;9.90;;;;;;;5.33;81.59;99638.52;80620;1296;3012231;-60
2024/03/15 08:56:44;;;;;;;23.10;10.50;;;;;;;5.92;80.27;99633.56;79083;1299;3052770;-60
2024/03/15 08:59:11;;;;;;;24.60;10.50;;;;;;;6.53;77.37;99631.69;80495;1300;3013348;-59
2024/03/15 09:01:38;;;;;;;22.30;10.50;;;;;;;6.74;76.46;99625.92;80547;1298;3011735;-61
2024/03/15 09:04:06;;;;;;;19.10;11.30;;;;;;;6.63;75.99;99626.73;78387;1296;3056400;-60
2024/03/15 09:06:36;;;;;;;23.40;12.40;;;;;;;6.50;76.38;99623.44;79989;1298;3015565;-61
2024/03/15 09:09:12;;;;;;;22.70;12.20;;;;;;;6.19;76.73;99621.91;79165;1298;3013089;-60
2024/03/15 09:11:42;;;;;;;35.30;13.80;;;;;;;6.17;77.47;99626.67;78660;1298;3050800;-59
2024/03/15 09:14:10;;;;;;;19.30;12.50;;;;;;;6.07;77.79;99627.28;79716;1295;3013760;-60
2024/03/15 09:16:41;;;;;;;29.70;14.70;;;;;;;5.90;77.43;99628.74;79207;1298;3013082;-60
2024/03/15 09:19:09;;;;;;;32.90;13.40;;;;;;;5.82;77.71;99635.14;80956;1298;3013093;-58
2024/03/15 09:21:41;;;;;;;27.70;14.90;;;;;;;5.73;78.44;99639.47;80098;1297;3013187;-60
2024/03/15 09:24:08;;;;;;;30.90;14.20;;;;;;;5.60;78.79;99637.19;79686;1298;3011827;-58
2024/03/15 09:26:37;;;;;;;27.40;15.40;;;;;;;5.53;79.24;99634.50;79560;1298;3012858;-60
2024/03/15 09:29:06;;;;;;;27.40;14.00;;;;;;;5.46;79.69;99631.30;79433;1296;3018383;-59
2024/03/15 09:31:35;;;;;;;32.10;14.70;;;;;;;5.44;79.60;99638.14;79585;1298;3011830;-59
2024/03/15 09:34:05;;;;;;;29.50;15.50;;;;;;;5.32;80.16;99641.34;78617;1295;3053208;-61
2024/03/15 09:36:33;;;;;;;25.70;14.90;;;;;;;5.35;80.52;99637.60;79870;1299;3011494;-62
2024/03/15 09:39:02;;;;;;;26.50;15.20;;;;;;;5.34;80.39;99640.55;79127;1298;3011544;-61
2024/03/15 09:41:29;;;;;;;25.30;11.90;;;;;;;5.31;80.66;99636.54;79644;1305;3013547;-59
2024/03/15 09:43:56;;;;;;;24.00;12.90;;;;;;;5.99;79.73;99633.48;79387;1299;3012127;-59
2024/03/15 09:46:24;;;;;;;32.70;13.40;;;;;;;6.57;76.07;99633.27;78255;1302;3025355;-59
2024/03/15 09:48:51;;;;;;;29.00;13.30;;;;;;;6.74;75.45;99631.67;79626;1298;3013762;-62
2024/03/15 09:51:18;;;;;;;23.90;14.70;;;;;;;6.69;75.12;99633.27;79984;1298;3011235;-60
2024/03/15 09:53:46;;;;;;;27.50;15.10;;;;;;;6.51;75.56;99629.84;78685;1295;3067635;-61
2024/03/15 09:56:14;;;;;;;24.80;14.70;;;;;;;6.36;76.79;99627.14;79515;1307;3012922;-61
2024/03/15 09:58:42;;;;;;;32.10;15.50;;;;;;;6.30;77.07;99626.84;79755;1298;3011604;-61
2024/03/15 10:01:12;;;;;;;34.90;17.80;;;;;;;6.19;77.74;99626.08;78382;1295;3053435;-61
2024/03/15 10:03:41;;;;;;;34.50;17.90;;;;;;;6.10;78.36;99628.02;80274;1301;3012794;-61
2024/03/15 10:06:09;;;;;;;35.10;17.60;;;;;;;6.11;78.53;99623.42;79050;1301;3052172;-61
2024/03/15 10:08:39;;;;;;;30.70;18.90;;;;;;;6.13;78.32;99626.34;80044;1298;3013346;-62
2024/03/15 10:11:08;;;;;;;33.20;17.80;;;;;;;6.13;77.90;99624.41;79072;1300;3011889;-60
2024/03/15 10:13:34;;;;;;;30.80;18.00;;;;;;;5.97;78.50;99622.26;79868;1298;3013317;-62
2024/03/15 10:16:04;;;;;;;35.50;19.80;;;;;;;5.90;79.48;99623.55;80058;1295;3011615;-62
2024/03/15 10:18:34;;;;;;;35.20;20.40;;;;;;;5.94;79.15;99620.60;79224;1298;3052025;-61
2024/03/15 10:21:00;;;;;;;40.50;20.90;;;;;;;5.84;79.51;99618.73;79734;1298;3013180;-61
2024/03/15 10:23:27;;;;;;;48.10;22.60;;;;;;;5.81;80.29;99617.27;80005;1298;3011602;-63
2024/03/15 10:25:55;;;;;;;32.30;15.50;;;;;;;5.82;80.76;99615.66;79319;1298;3069267;-64
2024/03/15 10:28:21;;;;;;;42.60;19.30;;;;;;;6.42;79.38;99616.27;79409;1301;3013219;-63
2024/03/15 10:30:49;;;;;;;33.50;19.50;;;;;;;7.00;76.85;99618.19;79788;1295;3013071;-61
2024/03/15 10:33:17;;;;;;;34.60;19.90;;;;;;;7.04;75.85;99622.55;78735;1299;3053202;-61
2024/03/15 10:35:45;;;;;;;38.00;20.40;;;;;;;6.97;76.27;99622.87;79390;1298;3013165;-61
2024/03/15 10:38:12;;;;;;;33.00;21.40;;;;;;;6.75;76.75;99619.80;79407;1301;3013163;-61
2024/03/15 10:40:40;;;;;;;41.80;22.60;;;;;;;6.66;77.21;99622.98;78316;1298;3067215;-62
2024/03/15 10:43:13;;;;;;;35.20;22.60;;;;;;;6.63;77.53;99621.02;79733;1296;3013089;-62
2024/03/15 10:45:43;;;;;;;38.90;22.60;;;;;;;6.57;77.44;99622.44;78770;1298;3049756;-62
2024/03/15 10:48:10;;;;;;;39.10;23.80;;;;;;;6.50;77.29;99624.66;80752;1298;3011949;-60
2024/03/15 10:50:39;;;;;;;38.80;23.00;;;;;;;6.33;77.79;99626.73;78995;1301;3013710;-60
2024/03/15 10:53:09;;;;;;;39.00;23.60;;;;;;;6.17;78.53;99623.91;80367;1295;3014918;-62
2024/03/15 10:55:37;;;;;;;44.40;25.60;;;;;;;6.03;79.27;99625.83;79729;1296;3011635;-61
2024/03/15 10:58:05;;;;;;;37.20;24.10;;;;;;;5.96;79.73;99629.40;79449;1295;3018598;-61
2024/03/15 11:00:32;;;;;;;46.10;25.60;;;;;;;5.93;79.97;99626.91;80187;1295;3011648;-63
2024/03/15 11:03:21;;;;;;;44.30;25.80;;;;;;;5.82;80.61;99629.57;79250;1295;3049154;-61
2024/03/15 11:05:49;;;;;;;35.90;21.20;;;;;;;5.80;80.90;99631.04;78853;1295;3053699;-62
2024/03/15 11:08:17;;;;;;;36.90;23.40;;;;;;;6.51;79.68;99628.95;79902;1308;3013303;-61
2024/03/15 11:10:54;;;;;;;48.70;24.60;;;;;;;7.25;77.56;99632.09;80121;1298;3011370;-62
2024/03/15 11:13:25;;;;;;;39.80;24.70;;;;;;;7.13;75.69;99635.77;79569;1296;3069692;-62
2024/03/15 11:15:52;;;;;;;51.50;28.10;;;;;;;6.95;76.41;99634.63;80345;1294;3011807;-65
2024/03/15 11:18:20;;;;;;;48.90;29.80;;;;;;;6.71;77.08;99637.02;78826;1296;3025964;-62
2024/03/15 11:20:53;;;;;;;46.10;29.90;;;;;;;6.37;78.29;99634.58;80006;1295;3013316;-62
2024/03/15 11:23:22;;;;;;;53.30;29.70;;;;;;;6.11;79.48;99635.45;78566;1299;3050622;-62
2024/03/15 11:26:00;;;;;;;49.10;29.40;;;;;;;6.03;80.30;99636.30;79842;1298;3013332;-60